Time;durP1;ratioP1;P1;durP2;ratioP2;P2;SDS_P1;SDS_P2;PMS_P1;PMS_P2;Temp;Humidity;BMP_temperature;BMP_pressure;BME280_temperature;BME280_humidity;BME280_pressure;Samples;Min_cycle;Max_cycle;Signal;HPM_P1;HPM_P2
2022/08/01 00:02:07;;;;;;;2.58;2.38;;;21.70;94.30;;;;;;5048979;28;20051;-71
2022/08/01 00:04:38;;;;;;;3.35;3.05;;;21.70;94.50;;;;;;5052706;28;20036;-71
2022/08/01 00:07:10;;;;;;;2.70;2.38;;;21.60;94.30;;;;;;5025974;28;20037;-68
2022/08/01 00:09:42;;;;;;;2.97;2.55;;;21.60;94.50;;;;;;5031760;28;20084;-68
2022/08/01 00:12:13;;;;;;;3.15;2.67;;;21.50;94.30;;;;;;5040498;28;20060;-68
2022/08/01 00:14:45;;;;;;;2.78;2.58;;;21.50;94.10;;;;;;5063140;28;20045;-69
2022/08/01 00:17:17;;;;;;;3.13;2.60;;;21.50;94.10;;;;;;5045362;28;20060;-70
2022/08/01 00:19:49;;;;;;;2.95;2.20;;;21.50;94.00;;;;;;5047813;28;20059;-69
2022/08/01 00:22:20;;;;;;;3.55;2.63;;;21.50;93.90;;;;;;5045436;28;20037;-69
2022/08/01 00:24:52;;;;;;;3.47;2.50;;;21.50;93.90;;;;;;5047719;28;20041;-68
2022/08/01 00:27:24;;;;;;;4.38;2.58;;;21.50;93.90;;;;;;5043204;28;20045;-69
2022/08/01 00:29:56;;;;;;;3.67;2.60;;;21.50;94.00;;;;;;5039173;28;20049;-69
2022/08/01 00:32:30;;;;;;;4.20;2.75;;;21.50;94.10;;;;;;5047732;28;20055;-68
2022/08/01 00:35:02;;;;;;;2.75;2.40;;;21.40;94.10;;;;;;5043747;28;20080;-68
2022/08/01 00:37:34;;;;;;;2.40;2.20;;;21.40;94.20;;;;;;5038504;28;20045;-68
2022/08/01 00:40:07;;;;;;;4.35;2.40;;;21.40;94.20;;;;;;5044427;28;20040;-69
2022/08/01 00:42:39;;;;;;;4.07;2.30;;;21.30;94.10;;;;;;5034987;28;20059;-68
2022/08/01 00:45:11;;;;;;;3.35;2.10;;;21.30;94.00;;;;;;5043176;28;20048;-68
2022/08/01 00:47:43;;;;;;;3.15;2.28;;;21.30;94.00;;;;;;5040347;28;20051;-70
2022/08/01 00:50:15;;;;;;;3.42;2.45;;;21.30;94.10;;;;;;5024358;28;20053;-68
2022/08/01 00:52:47;;;;;;;3.17;2.30;;;21.30;93.90;;;;;;5040852;28;20055;-69
2022/08/01 00:55:20;;;;;;;3.23;2.90;;;21.30;93.70;;;;;;5020197;28;20060;-69
2022/08/01 00:57:52;;;;;;;3.40;2.53;;;21.30;93.40;;;;;;5043843;28;20721;-68
2022/08/01 01:00:24;;;;;;;4.32;2.42;;;21.30;93.40;;;;;;5035125;28;20042;-68
2022/08/01 01:02:56;;;;;;;2.03;1.80;;;21.30;93.20;;;;;;5024688;28;20033;-69
2022/08/01 01:05:28;;;;;;;4.43;2.00;;;21.40;93.30;;;;;;5023105;28;20041;-69
2022/08/01 01:08:06;;;;;;;4.38;2.50;;;21.30;93.30;;;;;;5040968;28;20073;-69
2022/08/01 01:10:47;;;;;;;3.88;2.20;;;21.30;93.40;;;;;;5036722;28;20039;-69
2022/08/01 01:13:28;;;;;;;2.72;2.13;;;21.20;93.50;;;;;;5042196;28;20533;-69
2022/08/01 01:16:06;;;;;;;2.40;2.20;;;21.20;93.60;;;;;;5041491;28;20052;-69
2022/08/01 01:18:44;;;;;;;3.13;2.22;;;21.20;93.80;;;;;;5041038;28;20037;-68
2022/08/01 01:21:16;;;;;;;2.70;2.50;;;21.10;93.90;;;;;;5044134;28;20041;-69
2022/08/01 01:24:25;;;;;;;2.90;2.40;;;21.00;93.90;;;;;;5041271;28;20044;-68
2022/08/01 01:27:18;;;;;;;3.22;2.35;;;21.00;93.90;;;;;;5041195;28;20045;-70
2022/08/01 01:29:50;;;;;;;3.65;2.30;;;21.00;93.80;;;;;;5042301;28;20050;-71
2022/08/01 01:32:33;;;;;;;3.65;2.63;;;21.00;93.70;;;;;;5041774;28;20041;-71
2022/08/01 01:35:15;;;;;;;4.97;2.22;;;21.00;93.70;;;;;;5042650;28;20052;-72
2022/08/01 01:37:44;;;;;;;3.28;2.75;;;21.00;93.60;;;;;;5040660;28;20114;-71
2022/08/01 01:40:17;;;;;;;2.70;2.10;;;21.00;93.70;;;;;;5037555;28;20056;-71
2022/08/01 01:42:51;;;;;;;4.70;2.25;;;21.00;93.50;;;;;;5049122;28;20055;-71
2022/08/01 01:45:25;;;;;;;4.18;2.78;;;21.00;93.50;;;;;;5024189;28;20046;-71
2022/08/01 01:47:57;;;;;;;2.47;2.28;;;21.00;93.50;;;;;;5038597;28;20041;-71
2022/08/01 01:50:30;;;;;;;3.25;2.30;;;21.00;93.70;;;;;;5036628;28;20038;-71
2022/08/01 01:53:03;;;;;;;2.90;2.22;;;21.00;93.70;;;;;;5033944;28;20052;-71
2022/08/01 01:55:36;;;;;;;;;;;20.90;93.70;;;;;;5041365;28;20045;-71
2022/08/01 01:58:11;;;;;;;2.67;2.47;;;20.90;93.80;;;;;;5041697;28;20299;-71
2022/08/01 02:00:45;;;;;;;2.53;2.25;;;20.90;94.10;;;;;;5043051;28;20421;-72
2022/08/01 02:03:19;;;;;;;2.33;2.00;;;20.90;93.60;;;;;;5043676;28;20064;-71
2022/08/01 02:05:53;;;;;;;3.60;2.40;;;20.90;93.60;;;;;;5041459;28;20072;-71
2022/08/01 02:08:26;;;;;;;3.55;2.55;;;20.80;93.50;;;;;;5043943;28;20059;-71
2022/08/01 02:11:18;;;;;;;3.10;2.05;;;20.90;93.60;;;;;;5044030;28;20045;-71
2022/08/01 02:14:03;;;;;;;2.83;2.53;;;20.90;93.70;;;;;;5016562;28;20064;-71
2022/08/01 02:16:37;;;;;;;3.25;2.95;;;20.80;94.00;;;;;;5028727;28;20121;-71
2022/08/01 02:19:10;;;;;;;3.47;2.80;;;20.70;94.20;;;;;;5042497;28;20042;-71
2022/08/01 02:21:52;;;;;;;2.42;2.22;;;20.70;94.30;;;;;;5044929;28;20042;-71
2022/08/01 02:24:54;;;;;;;2.95;2.65;;;20.60;94.30;;;;;;5043670;28;20050;-71
2022/08/01 02:27:33;;;;;;;3.45;2.30;;;20.60;94.40;;;;;;5045748;28;20036;-71
2022/08/01 02:30:08;;;;;;;2.85;2.35;;;20.60;94.40;;;;;;5043420;28;20489;-71
2022/08/01 02:32:42;;;;;;;2.30;2.10;;;20.60;94.50;;;;;;5033087;28;20063;-71
2022/08/01 02:35:19;;;;;;;2.95;2.65;;;20.60;94.50;;;;;;5046496;28;20072;-70
2022/08/01 02:37:53;;;;;;;3.75;2.50;;;20.60;94.60;;;;;;5046194;28;20045;-71
2022/08/01 02:40:28;;;;;;;2.22;2.03;;;20.50;94.70;;;;;;5027024;28;20056;-71
2022/08/01 02:43:03;;;;;;;2.20;2.00;;;20.50;94.70;;;;;;5044970;28;20799;-71
2022/08/01 02:45:38;;;;;;;5.50;2.20;;;20.50;94.80;;;;;;5038542;28;20416;-71
2022/08/01 02:48:14;;;;;;;4.00;2.55;;;20.50;94.70;;;;;;5042203;28;20094;-72
2022/08/01 02:50:49;;;;;;;2.75;2.10;;;20.50;94.70;;;;;;5038134;28;20505;-71
2022/08/01 02:53:24;;;;;;;4.25;2.40;;;20.50;94.70;;;;;;5044684;28;20069;-71
2022/08/01 02:55:57;;;;;;;4.60;2.50;;;20.50;94.90;;;;;;5044853;28;20037;-71
2022/08/01 02:58:30;;;;;;;3.00;2.00;;;20.40;95.00;;;;;;5044424;28;20489;-72
2022/08/01 03:01:04;;;;;;;3.63;2.78;;;20.40;95.10;;;;;;5041530;28;20065;-71
2022/08/01 03:03:37;;;;;;;3.38;2.45;;;20.30;95.20;;;;;;5047770;28;20088;-71
2022/08/01 03:06:09;;;;;;;3.17;2.60;;;20.30;95.30;;;;;;5046770;28;20032;-71
2022/08/01 03:08:41;;;;;;;2.95;2.72;;;20.30;95.20;;;;;;5045963;28;20426;-71
2022/08/01 03:11:14;;;;;;;2.80;2.50;;;20.30;95.10;;;;;;5041513;28;20050;-71
2022/08/01 03:13:48;;;;;;;3.08;2.42;;;20.30;95.20;;;;;;5043211;28;20042;-73
2022/08/01 03:16:23;;;;;;;2.95;2.60;;;20.30;95.30;;;;;;5023085;28;20076;-71
2022/08/01 03:18:56;;;;;;;4.07;2.25;;;20.30;95.40;;;;;;5041269;28;20051;-72
2022/08/01 03:21:30;;;;;;;2.83;2.55;;;20.20;95.50;;;;;;5043419;28;20037;-71
2022/08/01 03:24:03;;;;;;;;;;;20.20;95.60;;;;;;5046003;28;20046;-71
2022/08/01 03:26:36;;;;;;;2.88;2.42;;;20.20;95.70;;;;;;5023921;28;19928;-71
2022/08/01 03:29:16;;;;;;;3.42;2.45;;;20.10;95.90;;;;;;5042073;28;20075;-71
2022/08/01 03:31:49;;;;;;;3.28;2.53;;;20.10;96.10;;;;;;5036319;28;20049;-72
2022/08/01 03:34:21;;;;;;;3.00;2.30;;;20.00;96.30;;;;;;5044385;28;20068;-71
2022/08/01 03:36:58;;;;;;;3.77;2.83;;;19.90;96.40;;;;;;5040179;28;20053;-71
2022/08/01 03:39:34;;;;;;;2.72;2.50;;;19.90;96.60;;;;;;5045762;28;20041;-71
2022/08/01 03:42:18;;;;;;;2.70;2.50;;;19.80;96.80;;;;;;5041144;28;20051;-69
2022/08/01 03:44:54;;;;;;;3.30;2.42;;;19.70;96.90;;;;;;5043753;28;20497;-71
2022/08/01 03:47:31;;;;;;;3.90;2.70;;;19.80;97.00;;;;;;5043271;28;20045;-71
2022/08/01 03:50:05;;;;;;;2.90;2.60;;;19.70;97.10;;;;;;5033897;28;20041;-71
2022/08/01 03:52:41;;;;;;;3.60;2.55;;;19.70;97.40;;;;;;5027900;28;20063;-71
2022/08/01 03:55:11;;;;;;;2.78;2.30;;;19.60;97.40;;;;;;5056538;23;20216;-89
2022/08/01 03:57:44;;;;;;;3.20;2.70;;;19.60;97.60;;;;;;5036223;28;20042;-89
2022/08/01 04:00:11;;;;;;;2.83;2.63;;;19.50;97.90;;;;;;5031582;28;20052;-88
2022/08/01 04:02:39;;;;;;;3.78;2.67;;;19.50;97.90;;;;;;5041704;28;20135;-90
2022/08/01 04:05:07;;;;;;;4.65;3.33;;;19.40;98.10;;;;;;5016418;28;20113;-89
2022/08/01 04:07:39;;;;;;;3.10;2.28;;;19.40;98.30;;;;;;5008775;28;20073;-90
2022/08/01 04:10:06;;;;;;;4.15;2.97;;;19.30;98.50;;;;;;5037877;23;20038;-71
2022/08/01 04:12:39;;;;;;;3.42;2.60;;;19.30;98.60;;;;;;5009436;28;20038;-71
2022/08/01 04:15:10;;;;;;;3.13;2.72;;;19.30;98.80;;;;;;5011208;28;20041;-72
2022/08/01 04:17:42;;;;;;;4.13;2.45;;;19.20;98.90;;;;;;5010775;28;20770;-72
2022/08/01 04:20:15;;;;;;;7.07;2.53;;;19.20;99.10;;;;;;5009490;28;20541;-71
2022/08/01 04:22:47;;;;;;;2.92;2.65;;;19.20;99.20;;;;;;5011433;28;20073;-72
2022/08/01 04:25:26;;;;;;;3.35;2.50;;;19.10;99.40;;;;;;5019237;28;20045;-72
2022/08/01 04:28:00;;;;;;;3.17;2.80;;;19.10;99.50;;;;;;4995537;28;20046;-72
2022/08/01 04:30:35;;;;;;;3.85;2.70;;;19.10;99.70;;;;;;5011532;28;20064;-71
2022/08/01 04:33:09;;;;;;;3.58;2.67;;;19.00;99.70;;;;;;5012325;28;20521;-71
2022/08/01 04:35:45;;;;;;;3.67;3.05;;;19.00;99.80;;;;;;5010562;28;20034;-72
2022/08/01 04:38:27;;;;;;;3.20;2.85;;;19.00;99.90;;;;;;5009045;28;20277;-71
2022/08/01 04:41:01;;;;;;;3.75;2.85;;;19.10;99.90;;;;;;5008768;28;20226;-72
2022/08/01 04:43:33;;;;;;;3.22;2.67;;;19.10;99.90;;;;;;5027430;28;20517;-72
2022/08/01 04:46:06;;;;;;;3.40;2.83;;;19.10;99.90;;;;;;5005364;28;20065;-72
2022/08/01 04:48:39;;;;;;;3.05;2.72;;;19.10;99.90;;;;;;4995314;28;20072;-72
2022/08/01 04:51:14;;;;;;;3.53;2.83;;;19.10;99.90;;;;;;5010845;28;20034;-72
2022/08/01 04:53:46;;;;;;;3.25;2.95;;;19.10;99.90;;;;;;5010193;28;20050;-71
2022/08/01 04:56:20;;;;;;;3.80;2.65;;;19.10;99.90;;;;;;5009537;28;20038;-71
2022/08/01 04:59:39;;;;;;;3.33;2.20;;;19.20;99.90;;;;;;5039520;28;20057;-71
2022/08/01 05:01:48;;;;;;;2.70;2.50;;;19.20;99.90;;;;;;5019710;28;20042;-71
2022/08/01 05:04:20;;;;;;;2.53;2.33;;;19.20;99.90;;;;;;5006573;28;20425;-72
2022/08/01 05:06:52;;;;;;;2.78;2.47;;;19.20;99.90;;;;;;5010321;28;20042;-72
2022/08/01 05:09:23;;;;;;;2.88;2.58;;;19.20;99.90;;;;;;5013462;28;20042;-72
2022/08/01 05:11:58;;;;;;;4.50;2.90;;;19.20;99.90;;;;;;5031649;28;20084;-72
2022/08/01 05:14:31;;;;;;;4.47;2.60;;;19.20;99.90;;;;;;5027678;28;20528;-72
2022/08/01 05:17:05;;;;;;;4.72;2.55;;;19.20;99.90;;;;;;5030311;28;20055;-72
2022/08/01 05:19:39;;;;;;;3.30;2.58;;;19.30;99.90;;;;;;5027885;28;20099;-72
2022/08/01 05:22:11;;;;;;;;;;;19.40;99.90;;;;;;5031993;28;20378;-72
2022/08/01 05:24:42;;;;;;;2.47;2.28;;;19.50;99.90;;;;;;5026228;28;19927;-72
2022/08/01 05:27:14;;;;;;;3.45;2.53;;;19.60;99.90;;;;;;5029218;28;20037;-71
2022/08/01 05:29:46;;;;;;;2.60;2.40;;;19.70;99.90;;;;;;5031220;28;20064;-72
2022/08/01 05:32:17;;;;;;;2.35;2.15;;;19.80;99.90;;;;;;5030307;28;20049;-72
2022/08/01 05:34:49;;;;;;;5.30;2.75;;;19.90;99.90;;;;;;5030903;28;20471;-72
2022/08/01 05:37:21;;;;;;;2.97;2.67;;;20.00;99.90;;;;;;5030338;28;20334;-72
2022/08/01 05:39:52;;;;;;;3.70;2.95;;;20.10;99.90;;;;;;5013268;28;20603;-72
2022/08/01 05:42:24;;;;;;;3.72;3.28;;;20.20;99.90;;;;;;5026481;28;20139;-72
2022/08/01 05:44:56;;;;;;;2.90;2.60;;;20.20;99.90;;;;;;5028969;28;20053;-72
2022/08/01 05:47:28;;;;;;;3.67;2.97;;;20.20;99.90;;;;;;5035758;28;20501;-73
2022/08/01 05:49:59;;;;;;;3.00;2.70;;;20.20;99.90;;;;;;5033895;28;20246;-71
2022/08/01 05:52:31;;;;;;;3.33;2.53;;;20.20;99.90;;;;;;5036658;28;20559;-71
2022/08/01 05:55:04;;;;;;;3.17;2.53;;;20.10;99.90;;;;;;5032236;28;20099;-72
2022/08/01 05:57:36;;;;;;;;;;;20.00;99.90;;;;;;5020852;28;20552;-72
2022/08/01 06:00:09;;;;;;;2.67;2.42;;;20.00;99.90;;;;;;5036889;28;19921;-72
2022/08/01 06:02:42;;;;;;;3.13;2.65;;;20.00;99.90;;;;;;5019742;28;20038;-71
2022/08/01 06:05:15;;;;;;;;;;;20.00;99.90;;;;;;5031330;28;20609;-71
2022/08/01 06:07:46;;;;;;;4.40;2.80;;;20.10;99.90;;;;;;5019360;28;19928;-71
2022/08/01 06:10:18;;;;;;;4.05;2.88;;;20.20;99.90;;;;;;5016752;28;20527;-72
2022/08/01 06:12:50;;;;;;;3.15;2.80;;;20.20;99.90;;;;;;5037688;28;20460;-72
2022/08/01 06:15:22;;;;;;;4.43;2.65;;;20.40;99.90;;;;;;5035788;28;20068;-72
2022/08/01 06:17:53;;;;;;;4.53;2.88;;;20.50;99.90;;;;;;5034906;28;20046;-72
2022/08/01 06:20:25;;;;;;;4.55;2.97;;;20.50;99.90;;;;;;5037612;28;20509;-72
2022/08/01 06:22:57;;;;;;;2.60;2.40;;;20.60;99.90;;;;;;5019597;28;20513;-72
2022/08/01 06:25:29;;;;;;;4.95;3.00;;;20.60;99.90;;;;;;5017695;28;20059;-72
2022/08/01 06:28:02;;;;;;;3.20;2.47;;;20.70;99.90;;;;;;5033791;28;20129;-72
2022/08/01 06:30:33;;;;;;;3.30;2.53;;;20.80;99.90;;;;;;5037478;28;20068;-72
2022/08/01 06:33:05;;;;;;;7.60;2.97;;;20.80;99.90;;;;;;5036063;28;20056;-72
2022/08/01 06:35:37;;;;;;;5.55;2.78;;;20.80;99.90;;;;;;5015377;28;20137;-72
2022/08/01 06:38:09;;;;;;;3.20;2.90;;;20.80;99.90;;;;;;5036971;28;20029;-72
2022/08/01 06:40:40;;;;;;;3.05;2.75;;;20.80;99.90;;;;;;5035499;28;20054;-72
2022/08/01 06:43:12;;;;;;;4.22;3.03;;;20.70;99.90;;;;;;5037384;28;20041;-72
2022/08/01 06:45:44;;;;;;;3.95;2.47;;;20.70;99.90;;;;;;5033625;28;20076;-71
2022/08/01 06:48:16;;;;;;;4.07;2.88;;;20.70;99.90;;;;;;5037216;28;20041;-72
2022/08/01 06:50:47;;;;;;;3.17;2.88;;;20.80;99.90;;;;;;5018286;28;20420;-72
2022/08/01 06:53:14;;;;;;;4.18;2.90;;;20.80;99.90;;;;;;5019482;28;20041;-71
2022/08/01 06:55:46;;;;;;;4.10;3.00;;;20.90;99.90;;;;;;5020553;28;20073;-71
2022/08/01 06:58:13;;;;;;;3.85;2.75;;;21.00;99.90;;;;;;5015647;28;20056;-72
2022/08/01 07:00:44;;;;;;;4.53;2.78;;;21.00;99.90;;;;;;5032360;28;20037;-71
2022/08/01 07:03:16;;;;;;;5.50;2.67;;;21.10;99.90;;;;;;5032147;28;20049;-71
2022/08/01 07:05:48;;;;;;;6.68;3.42;;;21.10;99.90;;;;;;5032092;28;20045;-72
2022/08/01 07:08:20;;;;;;;4.50;2.97;;;21.00;99.90;;;;;;5009338;28;20038;-71
2022/08/01 07:10:47;;;;;;;3.45;2.92;;;21.10;99.90;;;;;;5033185;28;20037;-71
2022/08/01 07:13:22;;;;;;;3.78;2.67;;;21.10;99.90;;;;;;5033650;28;20516;-72
2022/08/01 07:15:54;;;;;;;3.38;2.63;;;21.20;99.90;;;;;;5028669;28;20056;-71
2022/08/01 07:18:26;;;;;;;4.13;2.70;;;21.30;99.90;;;;;;5017853;28;20054;-72
2022/08/01 07:20:58;;;;;;;4.20;2.80;;;21.30;99.90;;;;;;4998558;28;20072;-70
2022/08/01 07:23:24;;;;;;;5.20;2.97;;;21.40;99.90;;;;;;5014220;28;20041;-71
2022/08/01 07:25:56;;;;;;;6.85;3.20;;;21.50;99.90;;;;;;4988288;28;20592;-70
2022/08/01 07:28:29;;;;;;;3.35;2.67;;;21.50;99.90;;;;;;5029991;28;20034;-71
2022/08/01 07:31:00;;;;;;;3.97;2.83;;;21.60;99.90;;;;;;5032938;28;20051;-71
2022/08/01 07:33:32;;;;;;;4.40;2.53;;;21.70;99.90;;;;;;5032981;28;20409;-71
2022/08/01 07:36:04;;;;;;;2.55;2.35;;;21.90;99.90;;;;;;5031285;28;20044;-70
2022/08/01 07:38:36;;;;;;;3.15;2.35;;;22.00;99.90;;;;;;5032221;28;20646;-71
2022/08/01 07:41:08;;;;;;;3.58;2.58;;;22.00;99.90;;;;;;5031767;28;20052;-70
2022/08/01 07:43:39;;;;;;;2.55;2.35;;;22.00;99.90;;;;;;5030838;28;20048;-71
2022/08/01 07:46:11;;;;;;;2.55;2.30;;;22.10;99.90;;;;;;5011328;28;20042;-71
2022/08/01 07:48:43;;;;;;;3.50;2.58;;;22.20;99.90;;;;;;5029404;28;20400;-70
2022/08/01 07:51:14;;;;;;;3.03;2.60;;;22.30;99.90;;;;;;5028665;28;20050;-71
2022/08/01 07:53:47;;;;;;;3.03;2.67;;;22.20;99.90;;;;;;5032632;28;20421;-71
2022/08/01 07:56:20;;;;;;;2.63;2.42;;;22.30;99.90;;;;;;5030238;28;20167;-71
2022/08/01 07:58:52;;;;;;;2.78;2.53;;;22.30;99.90;;;;;;5031336;28;20045;-72
2022/08/01 08:01:24;;;;;;;4.55;2.90;;;22.40;99.90;;;;;;4999150;28;20042;-70
2022/08/01 08:03:55;;;;;;;3.67;2.70;;;22.60;99.90;;;;;;5027358;28;20034;-71
2022/08/01 08:06:27;;;;;;;6.65;3.08;;;22.70;99.90;;;;;;5029338;28;20040;-71
2022/08/01 08:08:59;;;;;;;4.22;3.35;;;22.80;99.90;;;;;;5030452;28;20040;-72
2022/08/01 08:11:30;;;;;;;2.67;2.42;;;22.90;99.90;;;;;;5032658;28;20396;-71
2022/08/01 08:14:02;;;;;;;5.15;3.00;;;22.90;99.90;;;;;;5032076;28;20046;-71
2022/08/01 08:16:34;;;;;;;3.20;2.60;;;22.90;99.70;;;;;;5029286;28;20045;-71
2022/08/01 08:19:05;;;;;;;2.90;2.45;;;23.00;99.90;;;;;;5014319;28;20111;-71
2022/08/01 08:21:38;;;;;;;4.82;2.45;;;23.10;99.70;;;;;;5029140;28;20037;-71
2022/08/01 08:24:19;;;;;;;4.13;2.33;;;23.20;99.30;;;;;;5014114;28;20063;-70
2022/08/01 08:26:53;;;;;;;4.07;2.85;;;23.20;99.60;;;;;;5012814;28;20509;-71
2022/08/01 08:29:21;;;;;;;2.25;2.05;;;23.40;99.10;;;;;;5030871;28;20037;-70
2022/08/01 08:31:54;;;;;;;4.95;2.47;;;23.50;98.30;;;;;;5012416;28;20069;-71
2022/08/01 08:34:27;;;;;;;3.17;1.92;;;23.50;98.30;;;;;;5031133;28;20121;-71
2022/08/01 08:36:59;;;;;;;3.58;2.28;;;23.70;98.90;;;;;;5032633;28;20076;-72
2022/08/01 08:39:31;;;;;;;7.45;3.20;;;23.80;98.20;;;;;;5010958;28;20061;-71
2022/08/01 08:42:07;;;;;;;2.28;1.90;;;24.00;97.70;;;;;;5031942;28;20042;-71
2022/08/01 08:44:34;;;;;;;2.30;1.85;;;24.00;97.60;;;;;;5011831;28;20539;-71
2022/08/01 08:47:10;;;;;;;4.47;2.00;;;24.00;96.90;;;;;;5028562;28;20045;-71
2022/08/01 08:49:43;;;;;;;3.83;1.95;;;23.90;97.00;;;;;;5028449;28;20050;-70
2022/08/01 08:52:18;;;;;;;3.17;2.10;;;24.10;97.00;;;;;;5010637;28;20081;-71
2022/08/01 08:54:51;;;;;;;2.35;1.98;;;24.20;96.50;;;;;;5031478;28;20401;-71
2022/08/01 08:57:23;;;;;;;;;;;24.30;96.20;;;;;;5014604;28;20131;-71
2022/08/01 08:59:51;;;;;;;2.20;2.00;;;24.30;96.30;;;;;;5030295;28;20305;-71
2022/08/01 09:02:23;;;;;;;2.35;2.08;;;24.40;95.80;;;;;;5020288;28;20056;-70
2022/08/01 09:04:55;;;;;;;2.28;1.90;;;24.50;95.70;;;;;;5028370;28;20053;-70
2022/08/01 09:07:27;;;;;;;4.53;2.40;;;24.50;95.60;;;;;;5030514;28;20045;-70
2022/08/01 09:09:53;;;;;;;2.60;1.88;;;24.70;95.50;;;;;;5019854;28;20043;-71
2022/08/01 09:12:25;;;;;;;2.22;1.70;;;24.70;95.50;;;;;;5028682;28;20049;-70
2022/08/01 09:14:58;;;;;;;2.05;1.65;;;24.80;95.10;;;;;;5029954;28;20044;-72
2022/08/01 09:17:38;;;;;;;;;;;24.80;94.80;;;;;;5031478;28;20061;-72
2022/08/01 09:20:23;;;;;;;2.45;2.00;;;24.90;94.80;;;;;;5012959;28;20389;-72
2022/08/01 09:22:55;;;;;;;2.80;1.90;;;25.10;94.90;;;;;;5003786;28;20065;-71
2022/08/01 09:25:32;;;;;;;2.45;1.80;;;25.10;94.40;;;;;;5024058;28;20029;-72
2022/08/01 09:28:05;;;;;;;4.40;1.73;;;25.00;94.30;;;;;;5010477;28;20045;-71
2022/08/01 09:30:39;;;;;;;4.07;1.77;;;25.10;94.30;;;;;;5027954;28;20624;-71
2022/08/01 09:33:11;;;;;;;2.15;1.80;;;25.10;93.90;;;;;;5028458;28;20427;-72
2022/08/01 09:35:38;;;;;;;2.25;1.60;;;25.20;94.10;;;;;;5026248;28;20069;-71
2022/08/01 09:38:22;;;;;;;1.85;1.70;;;25.30;93.90;;;;;;5010121;28;20038;-71
2022/08/01 09:40:59;;;;;;;2.30;2.10;;;25.30;93.40;;;;;;5027707;28;20057;-71
2022/08/01 09:43:31;;;;;;;3.53;2.00;;;25.40;94.00;;;;;;5027044;28;20105;-71
2022/08/01 09:46:13;;;;;;;2.33;1.80;;;25.50;93.40;;;;;;5027195;28;20140;-70
2022/08/01 09:49:05;;;;;;;2.00;1.65;;;25.60;92.70;;;;;;5025179;28;20413;-72
2022/08/01 09:51:39;;;;;;;2.58;1.55;;;25.70;93.20;;;;;;5023808;28;20412;-71
2022/08/01 09:54:11;;;;;;;2.17;1.70;;;25.90;92.60;;;;;;5009831;28;20046;-73
2022/08/01 09:56:42;;;;;;;2.35;1.92;;;26.10;92.60;;;;;;5012167;28;20061;-70
2022/08/01 09:59:16;;;;;;;2.42;1.98;;;26.20;91.90;;;;;;4994364;28;20117;-71
2022/08/01 10:01:49;;;;;;;3.45;1.50;;;26.20;91.60;;;;;;5026515;28;20061;-71
2022/08/01 10:04:22;;;;;;;2.40;2.03;;;26.10;91.50;;;;;;5012330;28;20097;-71
2022/08/01 10:07:07;;;;;;;2.20;1.67;;;26.10;91.60;;;;;;5020204;28;20034;-71
2022/08/01 10:09:38;;;;;;;1.88;1.77;;;26.10;91.50;;;;;;5028188;28;20041;-71
2022/08/01 10:12:13;;;;;;;2.72;1.65;;;26.10;90.90;;;;;;5027224;23;20065;-70
2022/08/01 10:14:51;;;;;;;2.00;1.77;;;26.30;91.10;;;;;;4994853;28;20140;-70
2022/08/01 10:17:25;;;;;;;2.63;1.98;;;26.40;91.20;;;;;;5016156;28;20125;-70
2022/08/01 10:19:57;;;;;;;1.83;1.33;;;26.50;90.10;;;;;;5017867;28;20137;-69
2022/08/01 10:22:31;;;;;;;2.42;1.58;;;26.40;89.50;;;;;;5029305;28;20513;-70
2022/08/01 10:25:04;;;;;;;2.22;1.63;;;26.40;90.10;;;;;;5017984;28;20046;-68
2022/08/01 10:27:37;;;;;;;2.90;1.73;;;26.10;90.20;;;;;;5033478;28;20045;-70
2022/08/01 10:30:07;;;;;;;1.73;1.33;;;26.10;90.60;;;;;;5015608;28;20386;-70
2022/08/01 10:32:35;;;;;;;1.58;1.30;;;26.30;90.20;;;;;;5011556;28;20049;-70
2022/08/01 10:35:08;;;;;;;1.40;1.30;;;26.40;87.90;;;;;;5033220;28;20042;-70
2022/08/01 10:37:41;;;;;;;1.70;1.42;;;26.50;88.80;;;;;;5024365;28;20045;-69
2022/08/01 10:40:13;;;;;;;1.88;1.30;;;26.40;88.60;;;;;;4996670;28;20033;-70
2022/08/01 10:42:45;;;;;;;2.97;1.67;;;26.60;89.00;;;;;;5036333;28;20041;-70
2022/08/01 10:45:17;;;;;;;1.67;1.58;;;26.80;89.60;;;;;;5040276;28;20053;-68
2022/08/01 10:47:52;;;;;;;2.22;1.45;;;26.90;90.20;;;;;;5022314;28;20050;-70
2022/08/01 10:50:48;;;;;;;4.38;1.65;;;27.10;89.00;;;;;;5033790;28;20050;-70
2022/08/01 10:53:20;;;;;;;2.15;1.70;;;27.10;88.10;;;;;;5033029;28;20043;-70
2022/08/01 10:56:03;;;;;;;1.85;1.45;;;27.00;87.10;;;;;;5033827;28;20092;-70
2022/08/01 10:58:37;;;;;;;1.60;1.50;;;26.80;88.10;;;;;;5022919;28;20587;-70
2022/08/01 11:01:16;;;;;;;2.17;1.73;;;26.90;88.80;;;;;;5034873;28;20048;-71
2022/08/01 11:04:09;;;;;;;4.13;1.67;;;27.20;87.80;;;;;;5039255;28;20049;-70
2022/08/01 11:07:09;;;;;;;3.10;1.88;;;27.40;84.80;;;;;;5041605;28;20038;-70
2022/08/01 11:09:45;;;;;;;2.38;1.48;;;27.50;84.40;;;;;;4998837;28;20119;-70
2022/08/01 11:12:18;;;;;;;1.85;1.35;;;27.50;84.00;;;;;;5028887;28;20049;-69
2022/08/01 11:14:59;;;;;;;3.20;1.55;;;27.40;84.30;;;;;;5038697;28;20073;-70
2022/08/01 11:17:33;;;;;;;2.95;1.55;;;27.50;84.20;;;;;;5022766;28;20061;-70
2022/08/01 11:20:12;;;;;;;2.13;1.70;;;27.50;85.20;;;;;;5021751;28;20461;-70
2022/08/01 11:23:06;;;;;;;2.67;1.73;;;27.40;84.80;;;;;;5033430;28;20048;-69
2022/08/01 11:25:37;;;;;;;;;;;27.20;83.60;;;;;;5035161;28;20041;-69
2022/08/01 11:28:15;;;;;;;3.63;1.95;;;27.10;83.90;;;;;;5034694;28;19928;-70
2022/08/01 11:30:51;;;;;;;2.25;1.60;;;26.90;84.40;;;;;;5039817;28;20060;-70
2022/08/01 11:33:41;;;;;;;1.85;1.35;;;26.80;84.80;;;;;;5015095;28;20046;-70
2022/08/01 11:36:13;;;;;;;2.03;1.60;;;26.70;85.10;;;;;;5040373;28;20112;-70
2022/08/01 11:38:56;;;;;;;5.75;2.13;;;26.70;86.30;;;;;;5043743;28;20055;-69
2022/08/01 11:41:30;;;;;;;1.58;1.40;;;26.70;84.60;;;;;;5038012;28;20561;-70
2022/08/01 11:44:14;;;;;;;3.97;1.45;;;26.70;86.10;;;;;;5035015;28;20826;-70
2022/08/01 11:46:48;;;;;;;2.45;2.10;;;26.60;85.10;;;;;;5036972;28;20038;-70
2022/08/01 11:49:34;;;;;;;2.17;1.70;;;26.70;86.50;;;;;;5032124;28;20108;-70
2022/08/01 11:52:05;;;;;;;2.70;2.05;;;26.90;84.70;;;;;;5025392;28;20053;-68
2022/08/01 11:54:53;;;;;;;3.30;2.00;;;27.10;85.30;;;;;;5037064;28;20115;-70
2022/08/01 11:57:30;;;;;;;2.70;1.73;;;27.30;85.70;;;;;;5037396;28;20060;-70
2022/08/01 12:00:17;;;;;;;3.13;1.98;;;27.40;84.90;;;;;;5037186;28;20036;-70
2022/08/01 12:03:06;;;;;;;3.88;2.20;;;27.30;86.10;;;;;;5031679;28;20167;-70
2022/08/01 12:05:38;;;;;;;2.72;2.05;;;27.20;85.80;;;;;;5033498;28;20495;-70
2022/08/01 12:08:10;;;;;;;2.88;2.00;;;27.10;85.30;;;;;;5042410;28;20069;-70
2022/08/01 12:10:49;;;;;;;5.82;2.38;;;26.80;86.20;;;;;;5027789;28;20905;-69
2022/08/01 12:13:21;;;;;;;9.30;1.77;;;26.70;89.80;;;;;;5029288;28;20041;-69
2022/08/01 12:15:54;;;;;;;3.88;2.30;;;26.50;90.70;;;;;;5034952;28;20029;-69
2022/08/01 12:18:26;;;;;;;4.13;2.28;;;26.30;92.20;;;;;;5034609;28;20042;-69
2022/08/01 12:21:04;;;;;;;6.10;2.60;;;26.30;93.40;;;;;;5033023;28;20140;-70
2022/08/01 12:23:36;;;;;;;3.55;2.30;;;26.60;94.10;;;;;;5017966;28;20037;-69
2022/08/01 12:26:08;;;;;;;3.53;2.30;;;26.80;93.60;;;;;;5033216;28;20385;-70
2022/08/01 12:28:40;;;;;;;2.60;2.05;;;27.00;93.90;;;;;;5031129;28;20048;-70
2022/08/01 12:31:12;;;;;;;2.22;2.03;;;26.90;91.40;;;;;;5025821;28;20045;-70
2022/08/01 12:33:43;;;;;;;2.35;2.03;;;26.90;91.20;;;;;;5029040;28;20050;-70
2022/08/01 12:36:28;;;;;;;3.78;2.35;;;26.90;91.70;;;;;;5014864;28;20516;-70
2022/08/01 12:39:02;;;;;;;5.97;2.20;;;26.90;92.10;;;;;;5038669;28;20041;-70
2022/08/01 12:41:36;;;;;;;2.28;2.00;;;27.00;93.40;;;;;;5031507;28;20598;-70
2022/08/01 12:44:12;;;;;;;2.95;2.13;;;27.00;93.60;;;;;;5039038;28;20048;-70
2022/08/01 12:46:44;;;;;;;2.40;2.20;;;27.00;92.90;;;;;;5016168;28;20083;-70
2022/08/01 12:49:15;;;;;;;2.55;2.10;;;27.00;92.20;;;;;;5028940;28;20056;-69
2022/08/01 12:51:48;;;;;;;2.88;2.10;;;27.00;92.60;;;;;;5029498;28;20045;-70
2022/08/01 12:54:22;;;;;;;4.82;1.92;;;27.10;93.10;;;;;;5029537;28;20053;-70
2022/08/01 12:56:54;;;;;;;3.05;1.83;;;27.10;92.30;;;;;;5036166;28;20056;-70
2022/08/01 12:59:28;;;;;;;2.88;2.15;;;27.10;92.10;;;;;;5037363;28;20036;-70
2022/08/01 13:02:08;;;;;;;2.63;2.13;;;27.00;92.10;;;;;;5031899;28;20050;-70
2022/08/01 13:04:53;;;;;;;3.20;2.38;;;26.90;91.50;;;;;;5034807;28;20037;-70
2022/08/01 13:07:49;;;;;;;4.25;1.85;;;26.80;91.90;;;;;;5035914;28;20095;-70
2022/08/01 13:10:27;;;;;;;2.83;2.13;;;26.70;90.90;;;;;;5028879;28;20533;-70
2022/08/01 13:12:58;;;;;;;2.60;2.13;;;26.60;91.40;;;;;;5025844;28;20037;-70
2022/08/01 13:15:32;;;;;;;2.50;2.13;;;26.60;91.40;;;;;;5038238;28;20045;-70
2022/08/01 13:18:25;;;;;;;2.92;2.25;;;26.50;90.30;;;;;;5032582;28;20048;-69
2022/08/01 13:21:14;;;;;;;2.80;1.73;;;26.40;90.20;;;;;;5036360;28;20045;-70
2022/08/01 13:24:10;;;;;;;4.07;2.10;;;26.40;91.60;;;;;;5034357;28;20037;-70
2022/08/01 13:27:00;;;;;;;4.43;2.20;;;26.40;92.20;;;;;;5015731;28;20037;-70